This is the latest recevied weather packets stored in our database for station/object KJ4UBX-11. If no packets are shown the sender has not sent any weather packets the latest 10 day(s).
| Time | Temp. | Humidity | Pressure | Rain* | Wind** | Luminosity | Snow |
|---|---|---|---|---|---|---|---|
| 1777377952 | 17.78° C | 49% | 1023 hPa | - | - | - | - |
| 1777377365 | 14.44° C | 57% | 1023.2 hPa | - | - | - | - |
| 1777376779 | 13.33° C | 67% | 1023.3 hPa | - | - | - | - |
| 1777376193 | 11.11° C | 77% | 1023.6 hPa | - | - | - | - |
| 1777375608 | 10° C | 83% | 1023.8 hPa | - | - | - | - |
| 1777375025 | 10.56° C | 81% | 1023.7 hPa | - | - | - | - |
| 1777374438 | 8.89° C | 93% | 1023.6 hPa | - | - | - | - |
| 1777373853 | 7.22° C | 100% | 1023.6 hPa | - | - | - | - |
| 1777373269 | 6.11° C | 100% | 1023.6 hPa | - | - | - | - |
| 1777372687 | 6.67° C | 100% | 1023.7 hPa | - | - | - | - |
| 1777372104 | 6.11° C | 100% | 1023.5 hPa | - | - | - | - |
| 1777371519 | 5° C | 100% | 1023.5 hPa | - | - | - | - |
| 1777370936 | 5° C | 100% | 1023.6 hPa | - | - | - | - |
| 1777370352 | 4.44° C | 100% | 1023.6 hPa | - | - | - | - |
| 1777369770 | 4.44° C | 100% | 1023.7 hPa | - | - | - | - |
| 1777369187 | 4.44° C | 100% | 1023.7 hPa | - | - | - | - |
| 1777368604 | 3.89° C | 100% | 1023.7 hPa | - | - | - | - |
| 1777368022 | 3.89° C | 100% | 1023.8 hPa | - | - | - | - |
| 1777367439 | 4.44° C | 100% | 1023.6 hPa | - | - | - | - |
| 1777366856 | 4.44° C | 100% | 1023.6 hPa | - | - | - | - |
| 1777366273 | 4.44° C | 100% | 1023.5 hPa | - | - | - | - |
| 1777365691 | 4.44° C | 100% | 1023.7 hPa | - | - | - | - |
| 1777365109 | 5° C | 100% | 1023.6 hPa | - | - | - | - |
| 1777364527 | 5° C | 100% | 1023.2 hPa | - | - | - | - |
| 1777363944 | 5° C | 100% | 1023.1 hPa | - | - | - | - |
* Rain since midnight (hover to see other rain measurements)
** Current wind speed in m/s (hover to see current wind gust speed)